createdAt,value
2023-01-10T00:02:07.092Z,66.40
2023-01-10T00:04:37.119Z,66.10
2023-01-10T00:07:03.646Z,66.20
2023-01-10T00:09:30.117Z,66.30
2023-01-10T00:11:56.609Z,66.20
2023-01-10T00:14:23.073Z,66.30
2023-01-10T00:16:49.568Z,66.10
2023-01-10T00:19:16.035Z,66.20
2023-01-10T00:21:42.517Z,66.10
2023-01-10T00:24:08.987Z,66.40
2023-01-10T00:26:35.473Z,66.50
2023-01-10T00:29:01.960Z,66.50
2023-01-10T00:31:28.489Z,66.40
2023-01-10T00:33:54.987Z,66.40
2023-01-10T00:36:21.473Z,66.20
2023-01-10T00:38:47.972Z,66.00
2023-01-10T00:41:14.454Z,66.00
2023-01-10T00:43:40.948Z,66.10
2023-01-10T00:46:07.446Z,66.10
2023-01-10T00:48:33.971Z,66.20
2023-01-10T00:51:00.457Z,65.90
2023-01-10T00:53:26.947Z,66.00
2023-01-10T00:55:53.446Z,66.20
2023-01-10T00:58:19.930Z,66.20
2023-01-10T01:00:46.425Z,66.10
2023-01-10T01:03:12.901Z,65.70
2023-01-10T01:05:39.408Z,65.60
2023-01-10T01:08:05.902Z,65.80
2023-01-10T01:10:32.391Z,65.70
2023-01-10T01:12:58.873Z,65.70
2023-01-10T01:15:25.360Z,65.60
2023-01-10T01:17:51.838Z,65.70
2023-01-10T01:20:18.340Z,65.90
2023-01-10T01:22:44.813Z,66.10
2023-01-10T01:25:11.315Z,66.20
2023-01-10T01:27:37.801Z,66.30
2023-01-10T01:30:06.953Z,66.20
2023-01-10T01:32:33.445Z,66.10
2023-01-10T01:35:00.129Z,66.10
2023-01-10T01:37:26.616Z,66.20
2023-01-10T01:39:53.107Z,66.20
2023-01-10T01:42:19.579Z,66.00
2023-01-10T01:44:46.035Z,65.80
2023-01-10T01:47:12.510Z,65.60
2023-01-10T01:49:38.985Z,66.10
2023-01-10T01:52:05.469Z,65.40
2023-01-10T01:54:31.953Z,65.50
2023-01-10T01:56:58.435Z,65.80
2023-01-10T01:59:24.909Z,65.80
2023-01-10T02:01:51.428Z,66.00
2023-01-10T02:04:17.985Z,65.80
2023-01-10T02:06:44.518Z,66.00
2023-01-10T02:09:11.003Z,65.80
2023-01-10T02:11:37.485Z,65.70
2023-01-10T02:14:03.986Z,65.50
2023-01-10T02:16:30.504Z,65.60
2023-01-10T02:18:56.992Z,65.40
2023-01-10T02:21:23.472Z,65.40
2023-01-10T02:23:49.971Z,65.60
2023-01-10T02:26:16.486Z,65.50
2023-01-10T02:28:42.974Z,65.40
2023-01-10T02:31:09.489Z,65.20
2023-01-10T02:33:35.978Z,66.10
2023-01-10T02:36:02.445Z,65.30
2023-01-10T02:38:28.922Z,65.40
2023-01-10T02:40:55.418Z,65.40
2023-01-10T02:43:25.169Z,65.50
2023-01-10T02:45:51.650Z,65.60
2023-01-10T02:48:19.004Z,65.40
2023-01-10T02:50:45.487Z,65.40
2023-01-10T02:53:11.957Z,65.50
2023-01-10T02:55:38.455Z,65.40
2023-01-10T02:58:04.943Z,65.30
2023-01-10T03:00:31.477Z,65.40
2023-01-10T03:03:01.143Z,65.30
2023-01-10T03:05:27.650Z,65.40
2023-01-10T03:07:54.154Z,65.50
2023-01-10T03:10:20.659Z,65.30
2023-01-10T03:12:47.140Z,65.60
2023-01-10T03:15:13.631Z,65.50
2023-01-10T03:17:40.109Z,66.00
2023-01-10T03:20:06.585Z,65.10
2023-01-10T03:22:33.060Z,65.10
2023-01-10T03:24:59.527Z,64.80
2023-01-10T03:27:26.019Z,64.80
2023-01-10T03:29:52.502Z,64.90
2023-01-10T03:32:18.989Z,64.90
2023-01-10T03:34:45.475Z,65.30
2023-01-10T03:37:11.973Z,65.10
2023-01-10T03:39:38.451Z,65.40
2023-01-10T03:42:04.933Z,65.50
2023-01-10T03:44:31.414Z,65.30
2023-01-10T03:46:57.921Z,65.40
2023-01-10T03:49:24.406Z,65.60
2023-01-10T03:51:50.897Z,65.50
2023-01-10T03:54:17.387Z,65.40
2023-01-10T03:56:43.869Z,65.10
2023-01-10T03:59:13.081Z,65.30
2023-01-10T04:01:39.682Z,65.40
2023-01-10T04:04:06.273Z,64.90
2023-01-10T04:06:32.778Z,65.20
2023-01-10T04:08:59.257Z,65.10
2023-01-10T04:11:25.736Z,65.00
2023-01-10T04:13:55.097Z,65.00
2023-01-10T04:16:21.636Z,64.70
2023-01-10T04:18:48.111Z,64.90
2023-01-10T04:21:14.574Z,64.80
2023-01-10T04:23:41.041Z,64.80
2023-01-10T04:26:07.561Z,64.50
2023-01-10T04:28:34.035Z,64.60
2023-01-10T04:31:07.210Z,64.90
2023-01-10T04:33:33.721Z,64.50
2023-01-10T04:36:01.147Z,65.40
2023-01-10T04:38:27.625Z,64.90
2023-01-10T04:40:55.137Z,64.50
2023-01-10T04:43:25.351Z,64.70
2023-01-10T04:46:01.295Z,64.70
2023-01-10T04:48:27.781Z,64.60
2023-01-10T04:50:54.277Z,64.40
2023-01-10T04:53:20.755Z,64.70
2023-01-10T04:55:47.234Z,64.50
2023-01-10T04:58:13.724Z,64.50
2023-01-10T05:00:40.204Z,64.30
2023-01-10T05:03:06.795Z,64.30
2023-01-10T05:05:33.389Z,64.40
2023-01-10T05:07:59.883Z,64.30
2023-01-10T05:10:37.263Z,64.30
2023-01-10T05:13:03.727Z,64.10
2023-01-10T05:15:30.227Z,64.20
2023-01-10T05:17:56.726Z,64.20
2023-01-10T05:20:23.218Z,64.20
2023-01-10T05:22:49.696Z,64.00
2023-01-10T05:25:16.189Z,64.20
2023-01-10T05:27:42.679Z,64.20
2023-01-10T05:30:09.147Z,64.20
2023-01-10T05:32:35.645Z,64.20
2023-01-10T05:35:07.283Z,64.10
2023-01-10T05:37:33.780Z,63.80
2023-01-10T05:40:00.268Z,64.20
2023-01-10T05:42:26.761Z,64.30
2023-01-10T05:44:53.254Z,63.90
2023-01-10T05:47:19.746Z,64.10
2023-01-10T05:49:46.222Z,63.90
2023-01-10T05:52:12.750Z,63.80
2023-01-10T05:54:39.223Z,63.90
2023-01-10T05:57:07.161Z,63.60
2023-01-10T05:59:33.631Z,63.80
2023-01-10T06:02:00.153Z,63.90
2023-01-10T06:04:26.681Z,63.80
2023-01-10T06:06:55.193Z,64.10
2023-01-10T06:09:21.681Z,64.00
2023-01-10T06:11:48.179Z,63.70
2023-01-10T06:14:14.684Z,63.60
2023-01-10T06:16:41.174Z,63.40
2023-01-10T06:19:07.671Z,63.70
2023-01-10T06:21:37.391Z,63.70
2023-01-10T06:24:03.874Z,63.50
2023-01-10T06:26:30.359Z,63.50
2023-01-10T06:28:56.852Z,63.20
2023-01-10T06:31:23.360Z,63.10
2023-01-10T06:33:49.929Z,63.10
2023-01-10T06:36:19.199Z,63.20
2023-01-10T06:38:49.258Z,63.30
2023-01-10T06:41:15.735Z,63.30
2023-01-10T06:43:42.245Z,63.50
2023-01-10T06:46:08.755Z,63.50
2023-01-10T06:48:35.310Z,63.20
2023-01-10T06:51:01.769Z,63.20
2023-01-10T06:53:31.212Z,63.20
2023-01-10T06:55:57.685Z,63.10
2023-01-10T06:58:24.147Z,63.30
2023-01-10T07:00:50.722Z,63.40
2023-01-10T07:03:17.236Z,63.30
2023-01-10T07:05:43.729Z,63.20
2023-01-10T07:08:10.215Z,63.20
2023-01-10T07:10:36.688Z,63.60
2023-01-10T07:13:03.159Z,63.60
2023-01-10T07:15:29.653Z,63.70
2023-01-10T07:17:56.129Z,63.40
2023-01-10T07:20:22.594Z,63.40
2023-01-10T07:22:49.075Z,63.40
2023-01-10T07:25:15.547Z,63.50
2023-01-10T07:27:42.021Z,63.40
2023-01-10T07:30:08.498Z,63.50
2023-01-10T07:32:34.992Z,63.40
2023-01-10T07:35:01.486Z,63.20
2023-01-10T07:37:27.953Z,63.20
2023-01-10T07:39:54.431Z,63.50
2023-01-10T07:42:20.976Z,63.00
2023-01-10T07:44:49.433Z,63.40
2023-01-10T07:47:16.085Z,63.50
2023-01-10T07:49:42.593Z,63.50
2023-01-10T07:52:09.084Z,63.40
2023-01-10T07:54:35.604Z,63.50
2023-01-10T07:57:02.098Z,63.40
2023-01-10T07:59:28.628Z,63.00
2023-01-10T08:01:55.132Z,62.80
2023-01-10T08:04:21.708Z,63.40
2023-01-10T08:06:48.187Z,63.40
2023-01-10T08:09:14.642Z,63.10
2023-01-10T08:11:41.698Z,63.20
2023-01-10T08:14:13.495Z,63.40
2023-01-10T08:16:39.988Z,62.80
2023-01-10T08:19:06.439Z,63.10
2023-01-10T08:21:32.918Z,63.10
2023-01-10T08:23:59.385Z,62.90
2023-01-10T08:26:25.906Z,63.30
2023-01-10T08:28:52.394Z,63.40
2023-01-10T08:31:18.901Z,63.50
2023-01-10T08:33:49.523Z,63.10
2023-01-10T08:36:19.344Z,63.00
2023-01-10T08:38:49.511Z,63.10
2023-01-10T08:41:16.033Z,63.00
2023-01-10T08:43:43.317Z,62.90
2023-01-10T08:46:09.879Z,62.60
2023-01-10T08:48:36.572Z,63.20
2023-01-10T08:51:03.093Z,63.30
2023-01-10T08:53:37.405Z,63.20
2023-01-10T08:56:05.632Z,63.30
2023-01-10T08:58:32.239Z,63.30
2023-01-10T09:00:58.776Z,63.30
2023-01-10T09:03:25.268Z,62.90
2023-01-10T09:05:51.782Z,63.20
2023-01-10T09:08:18.265Z,63.10
2023-01-10T09:10:44.755Z,63.20
2023-01-10T09:13:11.231Z,63.30
2023-01-10T09:15:37.734Z,63.30
2023-01-10T09:18:04.202Z,62.90
2023-01-10T09:20:30.727Z,63.20
2023-01-10T09:22:57.292Z,63.40
2023-01-10T09:25:23.837Z,63.10
2023-01-10T09:27:50.321Z,63.00
2023-01-10T09:30:16.837Z,62.80
2023-01-10T09:32:43.316Z,63.00
2023-01-10T09:35:09.833Z,63.00
2023-01-10T09:37:36.309Z,62.60
2023-01-10T09:40:02.857Z,63.00
2023-01-10T09:42:29.374Z,63.30
2023-01-10T09:44:55.853Z,63.40
2023-01-10T09:47:23.353Z,63.00
2023-01-10T09:49:49.947Z,63.20
2023-01-10T09:52:16.418Z,63.10
2023-01-10T09:54:43.321Z,63.20
2023-01-10T09:57:09.795Z,63.30
2023-01-10T09:59:36.261Z,63.00
2023-01-10T10:02:02.748Z,63.10
2023-01-10T10:04:29.284Z,63.20
2023-01-10T10:06:55.802Z,62.90
2023-01-10T10:09:22.257Z,62.90
2023-01-10T10:11:48.726Z,62.90
2023-01-10T10:14:15.212Z,63.00
2023-01-10T10:16:41.755Z,62.90
2023-01-10T10:19:08.249Z,63.10
2023-01-10T10:21:34.753Z,63.20
2023-01-10T10:24:01.396Z,63.20
2023-01-10T10:26:27.882Z,63.20
2023-01-10T10:28:55.367Z,62.90
2023-01-10T10:31:25.494Z,63.10
2023-01-10T10:33:52.222Z,62.80
2023-01-10T10:36:19.442Z,63.00
2023-01-10T10:38:45.925Z,62.80
2023-01-10T10:41:12.418Z,63.20
2023-01-10T10:43:38.896Z,62.90
2023-01-10T10:46:05.484Z,62.80
2023-01-10T10:48:32.030Z,62.60
2023-01-10T10:50:58.543Z,63.00
2023-01-10T10:53:26.134Z,63.10
2023-01-10T10:55:52.663Z,63.00
2023-01-10T10:58:19.141Z,63.00
2023-01-10T11:00:45.678Z,63.50
2023-01-10T11:03:13.419Z,63.70
2023-01-10T11:05:43.479Z,63.90
2023-01-10T11:08:09.980Z,63.50
2023-01-10T11:10:36.441Z,63.70
2023-01-10T11:13:02.939Z,63.50
2023-01-10T11:15:29.409Z,63.60
2023-01-10T11:17:55.879Z,63.30
2023-01-10T11:20:25.638Z,63.10
2023-01-10T11:22:52.116Z,63.40
2023-01-10T11:25:18.604Z,63.50
2023-01-10T11:27:45.066Z,63.20
2023-01-10T11:30:11.550Z,63.30
2023-01-10T11:32:38.045Z,63.00
2023-01-10T11:35:04.539Z,63.30
2023-01-10T11:37:31.015Z,63.40
2023-01-10T11:40:07.661Z,63.40
2023-01-10T11:42:34.138Z,63.40
2023-01-10T11:45:01.460Z,63.40
2023-01-10T11:47:29.873Z,63.10
2023-01-10T11:50:01.693Z,63.20
2023-01-10T11:52:28.163Z,63.00
2023-01-10T11:54:54.843Z,62.80
2023-01-10T11:57:21.868Z,63.10
2023-01-10T11:59:48.363Z,63.10
2023-01-10T12:02:14.880Z,63.00
2023-01-10T12:04:41.383Z,63.00
2023-01-10T12:07:09.275Z,62.80
2023-01-10T12:09:35.965Z,62.80
2023-01-10T12:12:02.473Z,63.10
2023-01-10T12:14:28.951Z,63.10
2023-01-10T12:16:55.500Z,63.10
2023-01-10T12:19:22.001Z,62.90
2023-01-10T12:21:48.499Z,63.30
2023-01-10T12:24:14.976Z,63.20
2023-01-10T12:26:41.482Z,63.30
2023-01-10T12:29:07.978Z,63.10
2023-01-10T12:31:34.452Z,63.00
2023-01-10T12:34:00.921Z,63.10
2023-01-10T12:36:31.760Z,63.10
2023-01-10T12:38:58.258Z,63.40
2023-01-10T12:41:24.754Z,63.30
2023-01-10T12:43:51.261Z,63.60
2023-01-10T12:46:33.597Z,63.50
2023-01-10T12:49:04.193Z,63.70
2023-01-10T12:51:30.660Z,63.40
2023-01-10T12:53:57.153Z,63.40
2023-01-10T12:56:23.721Z,63.20
2023-01-10T12:58:50.202Z,63.00
2023-01-10T13:01:16.852Z,63.20
2023-01-10T13:03:43.475Z,63.10
2023-01-10T13:06:09.972Z,63.70
2023-01-10T13:08:36.457Z,62.70
2023-01-10T13:11:02.943Z,62.40
2023-01-10T13:13:29.434Z,62.60
2023-01-10T13:15:55.959Z,62.70
2023-01-10T13:18:22.465Z,63.40
2023-01-10T13:20:48.944Z,62.90
2023-01-10T13:23:15.441Z,62.60
2023-01-10T13:25:41.926Z,62.40
2023-01-10T13:28:08.439Z,62.20
2023-01-10T13:30:34.929Z,62.50
2023-01-10T13:33:01.436Z,62.50
2023-01-10T13:35:27.930Z,62.50
2023-01-10T13:37:54.408Z,62.50
2023-01-10T13:40:20.966Z,62.70
2023-01-10T13:42:49.541Z,62.50
2023-01-10T13:45:16.034Z,62.40
2023-01-10T13:47:42.533Z,62.60
2023-01-10T13:50:09.020Z,62.50
2023-01-10T13:52:35.497Z,62.30
2023-01-10T13:55:01.972Z,62.40
2023-01-10T13:57:31.643Z,62.10
2023-01-10T13:59:58.128Z,62.30
2023-01-10T14:02:24.649Z,62.20
2023-01-10T14:04:51.259Z,62.40
2023-01-10T14:07:17.848Z,62.50
2023-01-10T14:09:44.337Z,62.30
2023-01-10T14:12:10.835Z,62.60
2023-01-10T14:14:37.335Z,62.20
2023-01-10T14:17:03.813Z,62.00
2023-01-10T14:19:30.311Z,61.80
2023-01-10T14:21:56.788Z,62.00
2023-01-10T14:24:23.294Z,61.80
2023-01-10T14:26:49.761Z,62.10
2023-01-10T14:29:19.616Z,62.30
2023-01-10T14:31:46.096Z,62.40
2023-01-10T14:34:12.580Z,62.10
2023-01-10T14:36:39.054Z,62.00
2023-01-10T14:39:13.742Z,62.10
2023-01-10T14:41:40.230Z,62.10
2023-01-10T14:44:06.731Z,61.90
2023-01-10T14:46:37.726Z,61.90
2023-01-10T14:49:04.273Z,62.10
2023-01-10T14:51:30.783Z,62.20
2023-01-10T14:54:01.821Z,62.20
2023-01-10T14:56:28.293Z,62.00
2023-01-10T14:58:54.795Z,62.00
2023-01-10T15:01:21.667Z,62.30
2023-01-10T15:03:48.175Z,61.90
2023-01-10T15:06:14.653Z,62.00
2023-01-10T15:08:41.129Z,61.60
2023-01-10T15:11:07.623Z,61.80
2023-01-10T15:13:34.126Z,61.90
2023-01-10T15:16:00.655Z,62.20
2023-01-10T15:18:31.832Z,61.30
2023-01-10T15:20:58.365Z,61.40
2023-01-10T15:23:24.832Z,61.60
2023-01-10T15:25:51.356Z,61.90
2023-01-10T15:28:17.832Z,61.70
2023-01-10T15:30:44.347Z,61.70
2023-01-10T15:33:10.833Z,61.60
2023-01-10T15:35:37.452Z,62.70
2023-01-10T15:38:03.970Z,61.80
2023-01-10T15:40:30.458Z,61.90
2023-01-10T15:42:56.934Z,62.00
2023-01-10T15:45:23.450Z,61.80
2023-01-10T15:47:49.927Z,62.00
2023-01-10T15:50:17.261Z,61.50
2023-01-10T15:52:43.971Z,61.30
2023-01-10T15:55:10.477Z,61.50
2023-01-10T15:57:36.971Z,61.60
2023-01-10T16:00:03.438Z,61.50
2023-01-10T16:02:30.126Z,61.20
2023-01-10T16:04:56.706Z,61.10
2023-01-10T16:07:27.547Z,62.20
2023-01-10T16:09:54.328Z,61.20
2023-01-10T16:12:20.809Z,61.30
2023-01-10T16:14:47.295Z,61.50
2023-01-10T16:17:13.765Z,61.50
2023-01-10T16:19:40.258Z,61.10
2023-01-10T16:22:06.739Z,60.90
2023-01-10T16:24:37.779Z,60.70
2023-01-10T16:27:04.256Z,61.30
2023-01-10T16:29:31.675Z,61.00
2023-01-10T16:31:58.208Z,61.50
2023-01-10T16:34:24.682Z,61.70
2023-01-10T16:36:51.176Z,61.70
2023-01-10T16:39:17.662Z,61.90
2023-01-10T16:41:44.190Z,62.20
2023-01-10T16:44:10.674Z,61.10
2023-01-10T16:46:37.184Z,61.30
2023-01-10T16:49:03.686Z,61.20
2023-01-10T16:51:30.212Z,61.30
2023-01-10T16:53:56.747Z,61.00
2023-01-10T16:56:23.260Z,61.10
2023-01-10T16:58:49.739Z,61.20
2023-01-10T17:01:16.356Z,60.70
2023-01-10T17:03:42.977Z,60.90
2023-01-10T17:06:09.453Z,61.20
2023-01-10T17:08:35.929Z,61.20
2023-01-10T17:11:02.416Z,61.30
2023-01-10T17:13:28.954Z,61.30
2023-01-10T17:15:55.431Z,61.50
2023-01-10T17:18:21.901Z,61.00
2023-01-10T17:20:48.378Z,61.00
2023-01-10T17:23:14.846Z,60.40
2023-01-10T17:25:41.325Z,60.80
2023-01-10T17:28:07.805Z,60.80
2023-01-10T17:30:34.278Z,60.90
2023-01-10T17:33:00.729Z,61.10
2023-01-10T17:35:27.215Z,61.10
2023-01-10T17:37:53.722Z,61.20
2023-01-10T17:40:20.186Z,61.30
2023-01-10T17:42:46.661Z,61.20
2023-01-10T17:45:13.159Z,61.20
2023-01-10T17:47:39.644Z,61.30
2023-01-10T17:50:07.757Z,61.00
2023-01-10T17:52:34.235Z,60.90
2023-01-10T17:55:00.740Z,61.10
2023-01-10T17:57:27.238Z,61.20
2023-01-10T17:59:53.721Z,60.80
2023-01-10T18:02:20.412Z,60.50
2023-01-10T18:04:46.974Z,60.60
2023-01-10T18:07:20.008Z,61.00
2023-01-10T18:09:46.502Z,61.00
2023-01-10T18:12:13.757Z,61.10
2023-01-10T18:14:40.236Z,60.90
2023-01-10T18:17:06.769Z,61.10
2023-01-10T18:19:33.307Z,61.40
2023-01-10T18:21:59.784Z,61.20
2023-01-10T18:24:26.276Z,60.70
2023-01-10T18:26:52.773Z,60.90
2023-01-10T18:29:19.255Z,61.60
2023-01-10T18:31:49.902Z,61.60
2023-01-10T18:34:16.378Z,61.50
2023-01-10T18:36:43.785Z,61.70
2023-01-10T18:39:10.256Z,61.80
2023-01-10T18:41:36.750Z,61.80
2023-01-10T18:44:03.230Z,61.70
2023-01-10T18:46:29.776Z,61.70
2023-01-10T18:48:56.298Z,61.80
2023-01-10T18:51:25.959Z,62.10
2023-01-10T18:53:52.462Z,62.20
2023-01-10T18:56:19.813Z,62.40
2023-01-10T18:58:46.327Z,62.40
2023-01-10T19:01:12.851Z,62.30
2023-01-10T19:03:39.400Z,62.40
2023-01-10T19:06:05.924Z,62.50
2023-01-10T19:08:32.432Z,62.80
2023-01-10T19:11:15.715Z,63.00
2023-01-10T19:13:42.507Z,62.80
2023-01-10T19:16:14.166Z,63.10
2023-01-10T19:18:40.685Z,63.20
2023-01-10T19:21:07.824Z,63.60
2023-01-10T19:23:34.302Z,63.50
2023-01-10T19:26:00.796Z,63.60
2023-01-10T19:28:29.332Z,62.50
2023-01-10T19:31:04.327Z,62.50
2023-01-10T19:33:31.836Z,62.20
2023-01-10T19:35:58.323Z,62.50
2023-01-10T19:38:24.799Z,62.50
2023-01-10T19:40:51.274Z,62.80
2023-01-10T19:43:17.763Z,63.00
2023-01-10T19:45:44.260Z,62.80
2023-01-10T19:48:10.727Z,62.50
2023-01-10T19:50:37.211Z,62.20
2023-01-10T19:53:03.698Z,62.50
2023-01-10T19:55:30.204Z,62.90
2023-01-10T19:57:56.686Z,63.00
2023-01-10T20:00:23.152Z,63.00
2023-01-10T20:02:49.652Z,62.90
2023-01-10T20:05:16.183Z,63.10
2023-01-10T20:07:42.670Z,62.90
2023-01-10T20:10:09.140Z,63.20
2023-01-10T20:12:43.922Z,62.90
2023-01-10T20:15:10.390Z,62.50
2023-01-10T20:17:36.879Z,62.50
2023-01-10T20:20:03.384Z,62.40
2023-01-10T20:22:29.859Z,62.80
2023-01-10T20:24:56.344Z,62.80
2023-01-10T20:27:22.836Z,63.10
2023-01-10T20:29:49.354Z,63.20
2023-01-10T20:32:15.837Z,63.40
2023-01-10T20:34:42.355Z,63.40
2023-01-10T20:37:08.846Z,63.40
2023-01-10T20:39:35.334Z,63.00
2023-01-10T20:42:01.832Z,63.00
2023-01-10T20:44:28.326Z,63.40
2023-01-10T20:46:54.847Z,63.50
2023-01-10T20:49:21.355Z,63.40
2023-01-10T20:51:47.851Z,63.50
2023-01-10T20:54:14.335Z,63.40
2023-01-10T20:56:40.808Z,63.50
2023-01-10T20:59:07.295Z,63.70
2023-01-10T21:01:35.489Z,63.90
2023-01-10T21:04:02.353Z,63.50
2023-01-10T21:06:28.937Z,63.60
2023-01-10T21:08:55.426Z,63.40
2023-01-10T21:11:21.939Z,63.60
2023-01-10T21:13:48.421Z,63.50
2023-01-10T21:16:15.016Z,63.70
2023-01-10T21:18:41.546Z,63.60
2023-01-10T21:21:13.970Z,64.50
2023-01-10T21:23:40.458Z,63.70
2023-01-10T21:26:06.964Z,63.50
2023-01-10T21:28:33.453Z,63.90
2023-01-10T21:31:00.249Z,63.90
2023-01-10T21:33:32.142Z,64.10
2023-01-10T21:35:58.642Z,64.10
2023-01-10T21:38:25.124Z,63.80
2023-01-10T21:40:51.637Z,64.00
2023-01-10T21:43:18.109Z,63.90
2023-01-10T21:45:49.994Z,64.20
2023-01-10T21:48:16.480Z,64.00
2023-01-10T21:50:43.001Z,64.40
2023-01-10T21:53:09.482Z,64.50
2023-01-10T21:55:35.991Z,64.50
2023-01-10T21:58:08.150Z,64.60
2023-01-10T22:00:34.718Z,64.70
2023-01-10T22:03:01.223Z,64.80
2023-01-10T22:05:27.707Z,64.60
2023-01-10T22:07:54.197Z,64.10
2023-01-10T22:10:26.008Z,64.10
2023-01-10T22:12:52.487Z,64.10
2023-01-10T22:15:18.976Z,64.10
2023-01-10T22:17:45.483Z,64.30
2023-01-10T22:20:11.969Z,64.50
2023-01-10T22:22:38.459Z,64.50
2023-01-10T22:25:04.938Z,64.40
2023-01-10T22:27:31.437Z,64.50
2023-01-10T22:29:57.927Z,65.00
2023-01-10T22:32:24.424Z,64.40
2023-01-10T22:34:50.921Z,64.10
2023-01-10T22:37:17.411Z,64.40
2023-01-10T22:39:43.889Z,64.80
2023-01-10T22:42:10.392Z,65.80
2023-01-10T22:44:36.864Z,64.90
2023-01-10T22:47:03.372Z,64.90
2023-01-10T22:49:29.858Z,64.70
2023-01-10T22:51:56.356Z,64.90
2023-01-10T22:54:22.847Z,64.80
2023-01-10T22:56:49.361Z,64.50
2023-01-10T22:59:15.835Z,64.40
2023-01-10T23:01:42.337Z,64.80
2023-01-10T23:04:14.110Z,64.80
2023-01-10T23:06:40.648Z,64.60
2023-01-10T23:09:07.171Z,64.50
2023-01-10T23:11:38.064Z,65.40
2023-01-10T23:14:04.563Z,65.20
2023-01-10T23:16:31.087Z,65.00
2023-01-10T23:18:57.592Z,64.90
2023-01-10T23:21:24.062Z,65.10
2023-01-10T23:23:50.552Z,65.20
2023-01-10T23:26:17.058Z,64.60
2023-01-10T23:28:43.546Z,65.00
2023-01-10T23:31:10.017Z,65.60
2023-01-10T23:33:36.520Z,65.80
2023-01-10T23:36:02.990Z,65.20
2023-01-10T23:38:29.495Z,65.60
2023-01-10T23:40:56.005Z,65.10
2023-01-10T23:43:22.516Z,65.40
2023-01-10T23:45:49.029Z,65.60
2023-01-10T23:48:15.614Z,65.20
2023-01-10T23:50:42.104Z,65.50
2023-01-10T23:53:08.596Z,65.70
2023-01-10T23:55:35.063Z,65.90
2023-01-10T23:58:01.568Z,65.60
